sensor_id;sensor_type;location;lat;lon;timestamp;pressure;altitude;pressure_sealevel;temperature;humidity
3206;BME280;1615;53.602;11.418;2022-07-17T00:02:19;102093.41;;;14.49;100.00
3206;BME280;1615;53.602;11.418;2022-07-17T00:04:44;102087.28;;;14.57;100.00
3206;BME280;1615;53.602;11.418;2022-07-17T00:07:10;102095.00;;;14.55;100.00
3206;BME280;1615;53.602;11.418;2022-07-17T00:09:35;102091.16;;;14.56;100.00
3206;BME280;1615;53.602;11.418;2022-07-17T00:12:00;102087.34;;;14.47;100.00
3206;BME280;1615;53.602;11.418;2022-07-17T00:14:26;102064.34;;;14.23;100.00
3206;BME280;1615;53.602;11.418;2022-07-17T00:16:51;102086.03;;;14.39;100.00
3206;BME280;1615;53.602;11.418;2022-07-17T00:19:18;102085.81;;;14.31;100.00
3206;BME280;1615;53.602;11.418;2022-07-17T00:21:43;102083.63;;;14.28;100.00
3206;BME280;1615;53.602;11.418;2022-07-17T00:24:09;102085.84;;;14.26;100.00
3206;BME280;1615;53.602;11.418;2022-07-17T00:26:35;102098.03;;;14.20;100.00
3206;BME280;1615;53.602;11.418;2022-07-17T00:29:03;102093.59;;;14.24;100.00
3206;BME280;1615;53.602;11.418;2022-07-17T00:31:28;102102.41;;;14.16;100.00
3206;BME280;1615;53.602;11.418;2022-07-17T00:33:54;102090.84;;;14.24;100.00
3206;BME280;1615;53.602;11.418;2022-07-17T00:36:19;102093.59;;;14.24;100.00
3206;BME280;1615;53.602;11.418;2022-07-17T00:38:44;102093.59;;;14.24;100.00
3206;BME280;1615;53.602;11.418;2022-07-17T00:41:13;102092.50;;;14.20;100.00
3206;BME280;1615;53.602;11.418;2022-07-17T00:43:39;102089.75;;;14.20;100.00
3206;BME280;1615;53.602;11.418;2022-07-17T00:46:04;102078.72;;;14.20;100.00
3206;BME280;1615;53.602;11.418;2022-07-17T00:48:31;102085.88;;;14.16;100.00
3206;BME280;1615;53.602;11.418;2022-07-17T00:50:57;102016.63;;;13.74;100.00
3206;BME280;1615;53.602;11.418;2022-07-17T00:53:22;101963.34;;;13.40;100.00
3206;BME280;1615;53.602;11.418;2022-07-17T00:55:48;102082.63;;;14.09;100.00
3206;BME280;1615;53.602;11.418;2022-07-17T00:58:22;102084.56;;;14.03;100.00
3206;BME280;1615;53.602;11.418;2022-07-17T01:00:49;102080.44;;;14.01;100.00
3206;BME280;1615;53.602;11.418;2022-07-17T01:03:16;102080.72;;;13.99;100.00
3206;BME280;1615;53.602;11.418;2022-07-17T01:05:41;102081.84;;;13.93;100.00
3206;BME280;1615;53.602;11.418;2022-07-17T01:08:07;102079.41;;;13.92;100.00
3206;BME280;1615;53.602;11.418;2022-07-17T01:10:32;102075.56;;;13.88;100.00
3206;BME280;1615;53.602;11.418;2022-07-17T01:12:58;102092.13;;;13.83;100.00
3206;BME280;1615;53.602;11.418;2022-07-17T01:15:23;102021.22;;;13.30;100.00
3206;BME280;1615;53.602;11.418;2022-07-17T01:17:49;102087.47;;;13.73;100.00
3206;BME280;1615;53.602;11.418;2022-07-17T01:20:15;102085.00;;;13.72;100.00
3206;BME280;1615;53.602;11.418;2022-07-17T01:22:45;102090.78;;;13.75;100.00
3206;BME280;1615;53.602;11.418;2022-07-17T01:25:11;102096.84;;;13.72;100.00
3206;BME280;1615;53.602;11.418;2022-07-17T01:27:37;102092.72;;;13.70;100.00
3206;BME280;1615;53.602;11.418;2022-07-17T01:30:04;101978.38;;;12.84;100.00
3206;BME280;1615;53.602;11.418;2022-07-17T01:32:34;102097.69;;;13.63;100.00
3206;BME280;1615;53.602;11.418;2022-07-17T01:35:01;102079.00;;;13.55;100.00
3206;BME280;1615;53.602;11.418;2022-07-17T01:37:27;102089.94;;;13.70;100.00
3206;BME280;1615;53.602;11.418;2022-07-17T01:39:52;102085.03;;;13.62;100.00
3206;BME280;1615;53.602;11.418;2022-07-17T01:42:18;102093.84;;;13.64;100.00
3206;BME280;1615;53.602;11.418;2022-07-17T01:44:44;102089.16;;;13.64;100.00
3206;BME280;1615;53.602;11.418;2022-07-17T01:47:09;102093.31;;;13.62;100.00
3206;BME280;1615;53.602;11.418;2022-07-17T01:49:35;102089.72;;;13.56;100.00
3206;BME280;1615;53.602;11.418;2022-07-17T01:52:00;102090.03;;;13.55;100.00
3206;BME280;1615;53.602;11.418;2022-07-17T01:54:27;102099.94;;;13.56;100.00
3206;BME280;1615;53.602;11.418;2022-07-17T01:56:52;102086.72;;;13.53;100.00
3206;BME280;1615;53.602;11.418;2022-07-17T01:59:17;102090.84;;;13.50;100.00
3206;BME280;1615;53.602;11.418;2022-07-17T02:01:43;102093.88;;;13.49;100.00
3206;BME280;1615;53.602;11.418;2022-07-17T02:04:08;102091.97;;;13.44;100.00
3206;BME280;1615;53.602;11.418;2022-07-17T02:06:33;102069.72;;;13.31;100.00
3206;BME280;1615;53.602;11.418;2022-07-17T02:08:59;102096.94;;;13.42;100.00
3206;BME280;1615;53.602;11.418;2022-07-17T02:11:24;102091.44;;;13.37;100.00
3206;BME280;1615;53.602;11.418;2022-07-17T02:13:50;102099.47;;;13.34;100.00
3206;BME280;1615;53.602;11.418;2022-07-17T02:16:15;102102.47;;;13.32;100.00
3206;BME280;1615;53.602;11.418;2022-07-17T02:18:40;102094.75;;;13.29;100.00
3206;BME280;1615;53.602;11.418;2022-07-17T02:21:06;102094.50;;;13.31;100.00
3206;BME280;1615;53.602;11.418;2022-07-17T02:23:31;102031.22;;;12.86;100.00
3206;BME280;1615;53.602;11.418;2022-07-17T02:25:56;102097.25;;;13.26;100.00
3206;BME280;1615;53.602;11.418;2022-07-17T02:28:22;102102.50;;;13.27;100.00
3206;BME280;1615;53.602;11.418;2022-07-17T02:30:47;102103.59;;;13.26;100.00
3206;BME280;1615;53.602;11.418;2022-07-17T02:33:13;101983.94;;;12.54;100.00
3206;BME280;1615;53.602;11.418;2022-07-17T02:35:38;102103.88;;;13.20;100.00
3206;BME280;1615;53.602;11.418;2022-07-17T02:38:04;102117.09;;;13.23;100.00
3206;BME280;1615;53.602;11.418;2022-07-17T02:40:29;102143.28;;;13.20;100.00
3206;BME280;1615;53.602;11.418;2022-07-17T02:42:54;102086.31;;;12.96;100.00
3206;BME280;1615;53.602;11.418;2022-07-17T02:45:20;102066.19;;;12.80;100.00
3206;BME280;1615;53.602;11.418;2022-07-17T02:47:50;102132.25;;;13.20;100.00
3206;BME280;1615;53.602;11.418;2022-07-17T02:50:15;102110.25;;;13.10;100.00
3206;BME280;1615;53.602;11.418;2022-07-17T02:52:41;102128.66;;;13.25;100.00
3206;BME280;1615;53.602;11.418;2022-07-17T02:55:09;102132.78;;;13.22;100.00
3206;BME280;1615;53.602;11.418;2022-07-17T02:57:35;102129.78;;;13.19;100.00
3206;BME280;1615;53.602;11.418;2022-07-17T03:00:00;102135.81;;;13.16;100.00
3206;BME280;1615;53.602;11.418;2022-07-17T03:02:26;102067.00;;;12.81;100.00
3206;BME280;1615;53.602;11.418;2022-07-17T03:04:51;101985.31;;;12.16;100.00
3206;BME280;1615;53.602;11.418;2022-07-17T03:07:17;102105.81;;;12.94;100.00
3206;BME280;1615;53.602;11.418;2022-07-17T03:09:42;102135.81;;;13.06;100.00
3206;BME280;1615;53.602;11.418;2022-07-17T03:12:07;102142.44;;;13.05;100.00
3206;BME280;1615;53.602;11.418;2022-07-17T03:14:32;102144.66;;;13.03;100.00
3206;BME280;1615;53.602;11.418;2022-07-17T03:16:58;102143.56;;;13.04;100.00
3206;BME280;1615;53.602;11.418;2022-07-17T03:19:23;102052.72;;;12.49;100.00
3206;BME280;1615;53.602;11.418;2022-07-17T03:21:48;102144.66;;;13.08;100.00
3206;BME280;1615;53.602;11.418;2022-07-17T03:24:14;102168.88;;;13.06;100.00
3206;BME280;1615;53.602;11.418;2022-07-17T03:26:39;102148.78;;;13.10;100.00
3206;BME280;1615;53.602;11.418;2022-07-17T03:29:05;102150.44;;;13.11;100.00
3206;BME280;1615;53.602;11.418;2022-07-17T03:31:30;102153.19;;;13.16;100.00
3206;BME280;1615;53.602;11.418;2022-07-17T03:33:55;102151.28;;;13.12;100.00
3206;BME280;1615;53.602;11.418;2022-07-17T03:36:21;102164.75;;;13.13;100.00
3206;BME280;1615;53.602;11.418;2022-07-17T03:38:46;102153.72;;;13.13;100.00
3206;BME280;1615;53.602;11.418;2022-07-17T03:41:11;102167.78;;;13.12;100.00
3206;BME280;1615;53.602;11.418;2022-07-17T03:43:37;102167.78;;;13.12;100.00
3206;BME280;1615;53.602;11.418;2022-07-17T03:46:02;102166.69;;;13.13;100.00
3206;BME280;1615;53.602;11.418;2022-07-17T03:48:28;102166.38;;;13.14;100.00
3206;BME280;1615;53.602;11.418;2022-07-17T03:50:54;102167.22;;;13.20;100.00
3206;BME280;1615;53.602;11.418;2022-07-17T03:53:19;102168.88;;;13.26;100.00
3206;BME280;1615;53.602;11.418;2022-07-17T03:55:44;102169.97;;;13.30;100.00
3206;BME280;1615;53.602;11.418;2022-07-17T03:58:10;102160.34;;;13.32;100.00
3206;BME280;1615;53.602;11.418;2022-07-17T04:00:35;102158.38;;;13.38;100.00
3206;BME280;1615;53.602;11.418;2022-07-17T04:03:00;102150.66;;;13.45;100.00
3206;BME280;1615;53.602;11.418;2022-07-17T04:05:26;102063.16;;;12.92;100.00
3206;BME280;1615;53.602;11.418;2022-07-17T04:07:51;102152.84;;;13.53;100.00
3206;BME280;1615;53.602;11.418;2022-07-17T04:10:17;102091.75;;;13.26;100.00
3206;BME280;1615;53.602;11.418;2022-07-17T04:12:42;102146.75;;;13.76;100.00
3206;BME280;1615;53.602;11.418;2022-07-17T04:15:09;102154.16;;;13.80;100.00
3206;BME280;1615;53.602;11.418;2022-07-17T04:17:35;102150.53;;;13.90;100.00
3206;BME280;1615;53.602;11.418;2022-07-17T04:20:01;102140.56;;;13.99;100.00
3206;BME280;1615;53.602;11.418;2022-07-17T04:22:26;102149.59;;;14.09;100.00
3206;BME280;1615;53.602;11.418;2022-07-17T04:24:52;102143.78;;;14.16;100.00
3206;BME280;1615;53.602;11.418;2022-07-17T04:27:17;102144.88;;;14.30;100.00
3206;BME280;1615;53.602;11.418;2022-07-17T04:29:43;102145.34;;;14.42;100.00
3206;BME280;1615;53.602;11.418;2022-07-17T04:32:08;102126.00;;;14.47;100.00
3206;BME280;1615;53.602;11.418;2022-07-17T04:34:35;102144.00;;;14.78;100.00
3206;BME280;1615;53.602;11.418;2022-07-17T04:37:01;102150.00;;;14.85;100.00
3206;BME280;1615;53.602;11.418;2022-07-17T04:39:27;102132.88;;;14.88;100.00
3206;BME280;1615;53.602;11.418;2022-07-17T04:41:53;102120.66;;;14.94;100.00
3206;BME280;1615;53.602;11.418;2022-07-17T04:44:18;102178.34;;;15.29;100.00
3206;BME280;1615;53.602;11.418;2022-07-17T04:46:44;102149.47;;;15.45;100.00
3206;BME280;1615;53.602;11.418;2022-07-17T04:49:10;102154.44;;;15.48;100.00
3206;BME280;1615;53.602;11.418;2022-07-17T04:51:35;102155.97;;;15.59;100.00
3206;BME280;1615;53.602;11.418;2022-07-17T04:54:01;102151.47;;;15.68;100.00
3206;BME280;1615;53.602;11.418;2022-07-17T04:56:26;102136.53;;;15.69;100.00
3206;BME280;1615;53.602;11.418;2022-07-17T04:58:51;102151.50;;;15.86;100.00
3206;BME280;1615;53.602;11.418;2022-07-17T05:01:17;102151.44;;;15.91;100.00
3206;BME280;1615;53.602;11.418;2022-07-17T05:03:43;102160.00;;;15.95;100.00
3206;BME280;1615;53.602;11.418;2022-07-17T05:06:08;102141.88;;;15.84;100.00
3206;BME280;1615;53.602;11.418;2022-07-17T05:08:35;102160.63;;;15.87;100.00
3206;BME280;1615;53.602;11.418;2022-07-17T05:11:00;102149.63;;;15.82;100.00
3206;BME280;1615;53.602;11.418;2022-07-17T05:13:28;102166.06;;;15.97;100.00
3206;BME280;1615;53.602;11.418;2022-07-17T05:15:54;102065.03;;;15.34;100.00
3206;BME280;1615;53.602;11.418;2022-07-17T05:18:19;102168.81;;;15.97;100.00
3206;BME280;1615;53.602;11.418;2022-07-17T05:20:45;102168.09;;;16.10;100.00
3206;BME280;1615;53.602;11.418;2022-07-17T05:23:10;102165.97;;;16.25;100.00
3206;BME280;1615;53.602;11.418;2022-07-17T05:25:36;102112.53;;;16.06;100.00
3206;BME280;1615;53.602;11.418;2022-07-17T05:28:01;102153.75;;;16.50;100.00
3206;BME280;1615;53.602;11.418;2022-07-17T05:30:28;102147.91;;;16.51;100.00
3206;BME280;1615;53.602;11.418;2022-07-17T05:32:53;102132.50;;;16.64;100.00
3206;BME280;1615;53.602;11.418;2022-07-17T05:35:19;102144.38;;;16.83;100.00
3206;BME280;1615;53.602;11.418;2022-07-17T05:37:44;102147.19;;;16.96;100.00
3206;BME280;1615;53.602;11.418;2022-07-17T05:40:10;102149.50;;;17.08;100.00
3206;BME280;1615;53.602;11.418;2022-07-17T05:42:35;102153.00;;;17.13;100.00
3206;BME280;1615;53.602;11.418;2022-07-17T05:45:01;102154.75;;;17.09;100.00
3206;BME280;1615;53.602;11.418;2022-07-17T05:47:26;102158.03;;;17.11;100.00
3206;BME280;1615;53.602;11.418;2022-07-17T05:49:51;102053.56;;;16.48;100.00
3206;BME280;1615;53.602;11.418;2022-07-17T05:52:17;102165.88;;;17.23;100.00
3206;BME280;1615;53.602;11.418;2022-07-17T05:54:42;102046.66;;;16.64;100.00
3206;BME280;1615;53.602;11.418;2022-07-17T05:57:08;102159.88;;;17.48;100.00
3206;BME280;1615;53.602;11.418;2022-07-17T05:59:33;102041.41;;;16.94;100.00
3206;BME280;1615;53.602;11.418;2022-07-17T06:01:59;102167.84;;;17.95;100.00
3206;BME280;1615;53.602;11.418;2022-07-17T06:04:24;102124.69;;;17.62;100.00
3206;BME280;1615;53.602;11.418;2022-07-17T06:06:50;102166.59;;;18.28;100.00
3206;BME280;1615;53.602;11.418;2022-07-17T06:09:15;102166.94;;;18.40;100.00
3206;BME280;1615;53.602;11.418;2022-07-17T06:11:40;102159.22;;;18.37;100.00
3206;BME280;1615;53.602;11.418;2022-07-17T06:14:06;102166.56;;;18.55;100.00
3206;BME280;1615;53.602;11.418;2022-07-17T06:16:31;102167.25;;;18.74;100.00
3206;BME280;1615;53.602;11.418;2022-07-17T06:18:56;102166.06;;;18.88;100.00
3206;BME280;1615;53.602;11.418;2022-07-17T06:21:21;102167.06;;;18.92;100.00
3206;BME280;1615;53.602;11.418;2022-07-17T06:23:47;102174.41;;;19.10;100.00
3206;BME280;1615;53.602;11.418;2022-07-17T06:26:12;102161.19;;;19.16;100.00
3206;BME280;1615;53.602;11.418;2022-07-17T06:28:37;102165.13;;;19.15;100.00
3206;BME280;1615;53.602;11.418;2022-07-17T06:31:03;102183.44;;;19.16;100.00
3206;BME280;1615;53.602;11.418;2022-07-17T06:33:28;102174.41;;;19.10;100.00
3206;BME280;1615;53.602;11.418;2022-07-17T06:35:53;102175.66;;;19.04;100.00
3206;BME280;1615;53.602;11.418;2022-07-17T06:38:19;102172.25;;;19.07;100.00
3206;BME280;1615;53.602;11.418;2022-07-17T06:40:44;102171.75;;;19.05;100.00
3206;BME280;1615;53.602;11.418;2022-07-17T06:43:09;102169.16;;;19.09;100.00
3206;BME280;1615;53.602;11.418;2022-07-17T06:45:35;102179.16;;;19.10;100.00
3206;BME280;1615;53.602;11.418;2022-07-17T06:48:01;102070.97;;;18.34;100.00
3206;BME280;1615;53.602;11.418;2022-07-17T06:50:26;102189.81;;;18.94;100.00
3206;BME280;1615;53.602;11.418;2022-07-17T06:52:52;102186.34;;;18.89;100.00
3206;BME280;1615;53.602;11.418;2022-07-17T06:55:17;102190.75;;;18.90;100.00
3206;BME280;1615;53.602;11.418;2022-07-17T06:57:42;102192.81;;;18.84;100.00
3206;BME280;1615;53.602;11.418;2022-07-17T07:00:08;102194.88;;;18.92;100.00
3206;BME280;1615;53.602;11.418;2022-07-17T07:02:34;102192.41;;;18.91;100.00
3206;BME280;1615;53.602;11.418;2022-07-17T07:05:00;102211.72;;;18.96;100.00
3206;BME280;1615;53.602;11.418;2022-07-17T07:07:25;102198.84;;;19.00;100.00
3206;BME280;1615;53.602;11.418;2022-07-17T07:09:51;102183.19;;;19.04;100.00
3206;BME280;1615;53.602;11.418;2022-07-17T07:12:16;102201.56;;;19.27;100.00
3206;BME280;1615;53.602;11.418;2022-07-17T07:14:41;102204.44;;;19.44;100.00
3206;BME280;1615;53.602;11.418;2022-07-17T07:17:06;102213.41;;;19.41;100.00
3206;BME280;1615;53.602;11.418;2022-07-17T07:19:32;102212.28;;;19.42;100.00
3206;BME280;1615;53.602;11.418;2022-07-17T07:21:57;102207.75;;;19.54;100.00
3206;BME280;1615;53.602;11.418;2022-07-17T07:24:23;102210.50;;;19.68;100.00
3206;BME280;1615;53.602;11.418;2022-07-17T07:26:48;102217.56;;;19.74;100.00
3206;BME280;1615;53.602;11.418;2022-07-17T07:29:13;102215.00;;;19.86;100.00
3206;BME280;1615;53.602;11.418;2022-07-17T07:31:39;102211.25;;;19.90;100.00
3206;BME280;1615;53.602;11.418;2022-07-17T07:34:04;102206.84;;;19.98;100.00
3206;BME280;1615;53.602;11.418;2022-07-17T07:36:29;102213.59;;;20.05;100.00
3206;BME280;1615;53.602;11.418;2022-07-17T07:38:55;102208.44;;;20.21;100.00
3206;BME280;1615;53.602;11.418;2022-07-17T07:41:20;102193.03;;;20.23;100.00
3206;BME280;1615;53.602;11.418;2022-07-17T07:43:45;102212.09;;;20.38;100.00
3206;BME280;1615;53.602;11.418;2022-07-17T07:46:11;102215.56;;;20.44;100.00
3206;BME280;1615;53.602;11.418;2022-07-17T07:48:36;102209.03;;;20.57;100.00
3206;BME280;1615;53.602;11.418;2022-07-17T07:51:01;102222.34;;;20.68;100.00
3206;BME280;1615;53.602;11.418;2022-07-17T07:53:27;102212.84;;;20.86;100.00
3206;BME280;1615;53.602;11.418;2022-07-17T07:55:52;102162.16;;;20.76;100.00
3206;BME280;1615;53.602;11.418;2022-07-17T07:58:18;102215.69;;;21.20;100.00
3206;BME280;1615;53.602;11.418;2022-07-17T08:00:44;102220.56;;;21.32;100.00
3206;BME280;1615;53.602;11.418;2022-07-17T08:03:09;102178.56;;;21.20;100.00
3206;BME280;1615;53.602;11.418;2022-07-17T08:05:35;102213.81;;;21.58;100.00
3206;BME280;1615;53.602;11.418;2022-07-17T08:08:01;102215.63;;;21.54;100.00
3206;BME280;1615;53.602;11.418;2022-07-17T08:10:26;102213.50;;;21.34;100.00
3206;BME280;1615;53.602;11.418;2022-07-17T08:12:52;102214.38;;;21.18;100.00
3206;BME280;1615;53.602;11.418;2022-07-17T08:15:19;102212.22;;;21.15;100.00
3206;BME280;1615;53.602;11.418;2022-07-17T08:17:45;102226.66;;;21.00;100.00
3206;BME280;1615;53.602;11.418;2022-07-17T08:20:11;102229.44;;;21.17;100.00
3206;BME280;1615;53.602;11.418;2022-07-17T08:22:37;102217.94;;;21.27;100.00
3206;BME280;1615;53.602;11.418;2022-07-17T08:25:02;102220.41;;;21.28;100.00
3206;BME280;1615;53.602;11.418;2022-07-17T08:27:28;102214.34;;;21.26;100.00
3206;BME280;1615;53.602;11.418;2022-07-17T08:30:01;102213.69;;;21.21;100.00
3206;BME280;1615;53.602;11.418;2022-07-17T08:32:26;102212.06;;;21.20;100.00
3206;BME280;1615;53.602;11.418;2022-07-17T08:34:51;102215.50;;;21.25;100.00
3206;BME280;1615;53.602;11.418;2022-07-17T08:37:17;102215.16;;;21.18;100.00
3206;BME280;1615;53.602;11.418;2022-07-17T08:39:42;102213.84;;;21.07;100.00
3206;BME280;1615;53.602;11.418;2022-07-17T08:42:07;102212.88;;;20.95;100.00
3206;BME280;1615;53.602;11.418;2022-07-17T08:44:33;102224.53;;;20.97;100.00
3206;BME280;1615;53.602;11.418;2022-07-17T08:46:58;102219.88;;;20.84;100.00
3206;BME280;1615;53.602;11.418;2022-07-17T08:49:25;102227.28;;;20.88;100.00
3206;BME280;1615;53.602;11.418;2022-07-17T08:51:51;102219.59;;;21.19;100.00
3206;BME280;1615;53.602;11.418;2022-07-17T08:54:16;102124.63;;;20.73;100.00
3206;BME280;1615;53.602;11.418;2022-07-17T08:56:42;102227.59;;;21.46;100.00
3206;BME280;1615;53.602;11.418;2022-07-17T08:59:07;102224.81;;;21.55;100.00
3206;BME280;1615;53.602;11.418;2022-07-17T09:01:33;102218.25;;;21.51;100.00
3206;BME280;1615;53.602;11.418;2022-07-17T09:04:00;102230.38;;;21.72;100.00
3206;BME280;1615;53.602;11.418;2022-07-17T09:06:34;102228.22;;;21.77;100.00
3206;BME280;1615;53.602;11.418;2022-07-17T09:09:05;102231.38;;;21.76;100.00
3206;BME280;1615;53.602;11.418;2022-07-17T09:11:48;102234.63;;;21.78;100.00
3206;BME280;1615;53.602;11.418;2022-07-17T09:14:16;102209.84;;;21.59;100.00
3206;BME280;1615;53.602;11.418;2022-07-17T09:16:54;102233.31;;;21.67;100.00
3206;BME280;1615;53.602;11.418;2022-07-17T09:19:49;102240.88;;;21.66;100.00
3206;BME280;1615;53.602;11.418;2022-07-17T09:22:21;102234.13;;;21.84;100.00
3206;BME280;1615;53.602;11.418;2022-07-17T09:30:06;102223.25;;;21.91;100.00
3206;BME280;1615;53.602;11.418;2022-07-17T09:32:37;102239.34;;;22.03;100.00
3206;BME280;1615;53.602;11.418;2022-07-17T09:35:04;102227.84;;;21.96;100.00
3206;BME280;1615;53.602;11.418;2022-07-17T09:37:31;102237.91;;;21.80;100.00
3206;BME280;1615;53.602;11.418;2022-07-17T09:39:57;102241.03;;;21.78;100.00
3206;BME280;1615;53.602;11.418;2022-07-17T09:42:28;102240.06;;;21.66;100.00
3206;BME280;1615;53.602;11.418;2022-07-17T09:45:04;102238.09;;;21.75;100.00
3206;BME280;1615;53.602;11.418;2022-07-17T09:47:32;102238.28;;;21.53;100.00
3206;BME280;1615;53.602;11.418;2022-07-17T09:49:59;102231.06;;;21.52;100.00
3206;BME280;1615;53.602;11.418;2022-07-17T09:52:30;102231.06;;;21.52;100.00
3206;BME280;1615;53.602;11.418;2022-07-17T09:54:57;102109.69;;;20.95;100.00
3206;BME280;1615;53.602;11.418;2022-07-17T09:57:25;102236.31;;;21.70;100.00
3206;BME280;1615;53.602;11.418;2022-07-17T09:59:53;102234.81;;;21.73;100.00
3206;BME280;1615;53.602;11.418;2022-07-17T10:02:19;102229.19;;;21.81;100.00
3206;BME280;1615;53.602;11.418;2022-07-17T10:04:46;102211.31;;;21.65;100.00
3206;BME280;1615;53.602;11.418;2022-07-17T10:07:12;102162.97;;;21.27;100.00
3206;BME280;1615;53.602;11.418;2022-07-17T10:09:38;102238.59;;;21.77;100.00
3206;BME280;1615;53.602;11.418;2022-07-17T10:12:08;102232.31;;;21.80;100.00
3206;BME280;1615;53.602;11.418;2022-07-17T10:14:37;102223.59;;;21.90;100.00
3206;BME280;1615;53.602;11.418;2022-07-17T10:17:08;102158.94;;;21.71;100.00
3206;BME280;1615;53.602;11.418;2022-07-17T10:19:44;102229.75;;;22.12;100.00
3206;BME280;1615;53.602;11.418;2022-07-17T10:22:10;102229.59;;;22.09;100.00
3206;BME280;1615;53.602;11.418;2022-07-17T10:24:47;102242.78;;;22.00;100.00
3206;BME280;1615;53.602;11.418;2022-07-17T10:27:35;102169.28;;;21.62;100.00
3206;BME280;1615;53.602;11.418;2022-07-17T10:30:09;102233.38;;;22.04;100.00
3206;BME280;1615;53.602;11.418;2022-07-17T10:32:36;102224.91;;;22.30;100.00
3206;BME280;1615;53.602;11.418;2022-07-17T10:35:08;102229.59;;;22.46;100.00
3206;BME280;1615;53.602;11.418;2022-07-17T10:40:18;102208.19;;;22.13;100.00
3206;BME280;1615;53.602;11.418;2022-07-17T10:45:17;102148.25;;;21.64;100.00
3206;BME280;1615;53.602;11.418;2022-07-17T10:47:56;102233.56;;;22.08;94.81
3206;BME280;1615;53.602;11.418;2022-07-17T10:50:34;102231.53;;;22.17;94.08
3206;BME280;1615;53.602;11.418;2022-07-17T10:53:25;102230.50;;;22.30;98.58
3206;BME280;1615;53.602;11.418;2022-07-17T10:55:58;102225.31;;;22.49;97.61
3206;BME280;1615;53.602;11.418;2022-07-17T10:58:30;102223.22;;;22.66;95.59
3206;BME280;1615;53.602;11.418;2022-07-17T11:06:29;102196.84;;;22.76;95.20
3206;BME280;1615;53.602;11.418;2022-07-17T11:08:58;102197.13;;;22.83;98.13
3206;BME280;1615;53.602;11.418;2022-07-17T11:14:08;102199.22;;;22.86;99.30
3206;BME280;1615;53.602;11.418;2022-07-17T11:16:34;102199.50;;;22.93;94.08
3206;BME280;1615;53.602;11.418;2022-07-17T11:18:59;102067.56;;;22.09;90.96
3206;BME280;1615;53.602;11.418;2022-07-17T11:21:25;102180.13;;;22.88;91.63
3206;BME280;1615;53.602;11.418;2022-07-17T11:23:53;102192.56;;;22.99;84.87
3206;BME280;1615;53.602;11.418;2022-07-17T11:26:19;102182.19;;;22.79;77.27
3206;BME280;1615;53.602;11.418;2022-07-17T11:28:46;102126.81;;;22.43;84.54
3206;BME280;1615;53.602;11.418;2022-07-17T11:33:56;102193.63;;;22.86;83.81
3206;BME280;1615;53.602;11.418;2022-07-17T11:36:24;102196.44;;;22.86;87.91
3206;BME280;1615;53.602;11.418;2022-07-17T11:38:50;102181.78;;;22.89;80.47
3206;BME280;1615;53.602;11.418;2022-07-17T11:41:16;102087.25;;;22.33;79.10
3206;BME280;1615;53.602;11.418;2022-07-17T11:43:46;102177.72;;;22.98;80.81
3206;BME280;1615;53.602;11.418;2022-07-17T11:46:14;102186.78;;;23.16;90.52
3206;BME280;1615;53.602;11.418;2022-07-17T11:48:41;102179.84;;;23.01;77.61
3206;BME280;1615;53.602;11.418;2022-07-17T11:51:06;102183.38;;;23.10;76.38
3206;BME280;1615;53.602;11.418;2022-07-17T11:53:34;102099.66;;;22.73;76.31
3206;BME280;1615;53.602;11.418;2022-07-17T11:56:00;102165.78;;;23.10;68.98
3206;BME280;1615;53.602;11.418;2022-07-17T11:58:26;102164.63;;;23.11;69.76
3206;BME280;1615;53.602;11.418;2022-07-17T12:01:03;102179.16;;;23.25;78.32
3206;BME280;1615;53.602;11.418;2022-07-17T12:03:28;102086.88;;;22.84;81.91
3206;BME280;1615;53.602;11.418;2022-07-17T12:05:54;102182.94;;;23.41;79.94
3206;BME280;1615;53.602;11.418;2022-07-17T12:08:19;102179.44;;;23.32;62.93
3206;BME280;1615;53.602;11.418;2022-07-17T12:10:45;102087.00;;;22.87;67.07
3206;BME280;1615;53.602;11.418;2022-07-17T12:13:13;102126.69;;;23.34;78.69
3206;BME280;1615;53.602;11.418;2022-07-17T12:18:07;102162.72;;;23.68;77.17
3206;BME280;1615;53.602;11.418;2022-07-17T12:20:46;102155.56;;;23.70;77.01
3206;BME280;1615;53.602;11.418;2022-07-17T12:23:37;102157.13;;;23.80;73.57
3206;BME280;1615;53.602;11.418;2022-07-17T12:26:12;102163.88;;;23.67;61.52
3206;BME280;1615;53.602;11.418;2022-07-17T12:28:38;102155.94;;;23.69;62.50
3206;BME280;1615;53.602;11.418;2022-07-17T12:31:04;102162.47;;;23.73;59.89
3206;BME280;1615;53.602;11.418;2022-07-17T12:33:30;102174.84;;;23.72;60.77
3206;BME280;1615;53.602;11.418;2022-07-17T12:35:55;102148.94;;;23.75;60.32
3206;BME280;1615;53.602;11.418;2022-07-17T12:38:21;102162.03;;;23.83;67.54
3206;BME280;1615;53.602;11.418;2022-07-17T12:40:46;102153.38;;;23.76;63.01
3206;BME280;1615;53.602;11.418;2022-07-17T12:43:11;102155.88;;;23.89;68.02
3206;BME280;1615;53.602;11.418;2022-07-17T12:45:37;102154.13;;;23.97;65.63
3206;BME280;1615;53.602;11.418;2022-07-17T12:48:02;102097.25;;;23.84;69.04
3206;BME280;1615;53.602;11.418;2022-07-17T12:50:28;102132.66;;;24.01;66.34
3206;BME280;1615;53.602;11.418;2022-07-17T12:52:54;102051.94;;;23.58;72.31
3206;BME280;1615;53.602;11.418;2022-07-17T12:55:19;102138.81;;;24.06;68.10
3206;BME280;1615;53.602;11.418;2022-07-17T12:57:45;102131.94;;;24.04;65.27
3206;BME280;1615;53.602;11.418;2022-07-17T13:00:11;102093.25;;;23.85;66.10
3206;BME280;1615;53.602;11.418;2022-07-17T13:02:37;102117.22;;;24.07;58.84
3206;BME280;1615;53.602;11.418;2022-07-17T13:05:02;102132.84;;;24.20;64.07
3206;BME280;1615;53.602;11.418;2022-07-17T13:07:28;102132.16;;;24.23;61.85
3206;BME280;1615;53.602;11.418;2022-07-17T13:09:53;102138.81;;;24.30;73.52
3206;BME280;1615;53.602;11.418;2022-07-17T13:12:19;102123.16;;;24.41;71.75
3206;BME280;1615;53.602;11.418;2022-07-17T13:14:44;102032.47;;;23.86;68.13